Time;durP1;ratioP1;P1;durP2;ratioP2;P2;SDS_P1;SDS_P2;PMS_P1;PMS_P2;Temp;Humidity;BMP_temperature;BMP_pressure;BME280_temperature;BME280_humidity;BME280_pressure;Samples;Min_cycle;Max_cycle;Signal;HPM_P1;HPM_P2
2023/03/14 00:01:20;;;;;;;;;;;10.00;79.60;;;;;;5036281;28;20030;-45
2023/03/14 00:03:47;;;;;;;21.88;5.90;;;9.90;79.70;;;;;;5018251;28;19975;-45
2023/03/14 00:06:23;;;;;;;24.15;5.70;;;9.90;79.80;;;;;;5035970;28;20039;-45
2023/03/14 00:08:51;;;;;;;24.45;5.00;;;9.90;80.00;;;;;;5036035;28;20105;-47
2023/03/14 00:11:21;;;;;;;24.30;6.60;;;9.80;80.10;;;;;;5050015;28;20036;-45
2023/03/14 00:13:59;;;;;;;18.77;3.95;;;9.70;80.40;;;;;;5052215;28;20132;-47
2023/03/14 00:16:26;;;;;;;25.73;5.50;;;9.70;80.60;;;;;;5051469;28;20386;-46
2023/03/14 00:19:08;;;;;;;21.40;4.95;;;9.60;81.00;;;;;;5051088;28;20324;-45
2023/03/14 00:21:35;;;;;;;22.08;5.90;;;9.70;81.20;;;;;;5035714;28;20097;-45
2023/03/14 00:24:04;;;;;;;16.75;4.15;;;9.70;81.20;;;;;;5035303;28;20087;-45
2023/03/14 00:26:32;;;;;;;25.45;5.18;;;9.70;81.20;;;;;;5034702;28;20037;-46
2023/03/14 00:28:57;;;;;;;21.17;5.70;;;9.70;81.30;;;;;;5035642;28;20033;-45
2023/03/14 00:31:26;;;;;;;25.70;6.75;;;9.70;81.40;;;;;;5036039;28;20042;-47
2023/03/14 00:33:53;;;;;;;16.60;4.82;;;9.60;81.50;;;;;;5035346;28;20113;-47
2023/03/14 00:36:22;;;;;;;21.60;5.97;;;9.60;81.40;;;;;;5042839;28;20040;-45
2023/03/14 00:38:51;;;;;;;23.90;6.22;;;9.60;81.40;;;;;;5055258;28;20044;-48
2023/03/14 00:41:23;;;;;;;20.60;5.82;;;9.50;81.50;;;;;;5052452;28;20091;-47
2023/03/14 00:43:49;;;;;;;23.02;4.68;;;9.50;81.50;;;;;;5050806;28;20427;-45
2023/03/14 00:46:17;;;;;;;29.00;6.80;;;9.50;81.60;;;;;;5050602;28;20037;-48
2023/03/14 00:48:44;;;;;;;17.55;4.78;;;9.40;81.90;;;;;;5034502;28;20025;-45
2023/03/14 00:51:14;;;;;;;20.52;5.88;;;9.40;81.90;;;;;;5034293;28;20116;-46
2023/03/14 00:53:41;;;;;;;16.00;4.35;;;9.40;82.40;;;;;;5035075;28;20041;-48
2023/03/14 00:56:11;;;;;;;24.05;8.15;;;9.40;82.50;;;;;;5037946;28;20059;-46
2023/03/14 00:58:39;;;;;;;24.90;4.78;;;9.40;82.30;;;;;;5053693;28;20106;-49
2023/03/14 01:01:10;;;;;;;26.88;6.28;;;9.40;82.40;;;;;;5028119;28;20132;-45
2023/03/14 01:03:38;;;;;;;23.10;5.55;;;9.40;82.50;;;;;;5033573;28;20060;-48
2023/03/14 01:06:27;;;;;;;26.38;5.50;;;9.50;82.60;;;;;;5035189;28;20449;-45
2023/03/14 01:08:55;;;;;;;20.85;5.10;;;9.60;82.20;;;;;;5035281;28;20345;-47
2023/03/14 01:11:42;;;;;;;23.30;5.55;;;9.60;82.30;;;;;;5050255;28;20044;-49
2023/03/14 01:14:10;;;;;;;23.27;4.47;;;9.60;82.40;;;;;;5034423;28;20044;-49
2023/03/14 01:16:37;;;;;;;29.02;5.65;;;9.70;82.40;;;;;;5049997;28;20043;-45
2023/03/14 01:19:04;;;;;;;24.52;5.18;;;9.70;82.30;;;;;;5034568;28;20034;-45
2023/03/14 01:21:35;;;;;;;16.67;5.22;;;9.80;82.40;;;;;;5034748;28;20056;-44
2023/03/14 01:24:03;;;;;;;20.58;4.95;;;9.90;81.90;;;;;;5033674;28;20029;-46
2023/03/14 01:26:33;;;;;;;22.25;5.22;;;9.90;81.60;;;;;;5033604;28;20037;-44
2023/03/14 01:28:59;;;;;;;17.98;4.50;;;10.00;81.30;;;;;;5033769;28;20050;-44
2023/03/14 01:31:29;;;;;;;17.30;5.05;;;10.10;81.00;;;;;;5033521;28;20263;-44
2023/03/14 01:33:55;;;;;;;21.23;4.88;;;10.20;81.00;;;;;;5034129;28;20033;-46
2023/03/14 01:36:25;;;;;;;25.17;5.00;;;10.20;80.90;;;;;;5034223;28;20458;-44
2023/03/14 01:38:51;;;;;;;22.73;5.93;;;10.20;80.90;;;;;;5033245;28;20439;-47
2023/03/14 01:41:24;;;;;;;21.67;6.03;;;10.20;80.80;;;;;;5034187;28;20043;-44
2023/03/14 01:43:51;;;;;;;21.63;5.07;;;10.20;80.90;;;;;;5033161;28;20530;-45
2023/03/14 01:46:48;;;;;;;13.80;3.95;;;10.20;81.00;;;;;;5033683;28;20030;-46
2023/03/14 01:49:35;;;;;;;16.60;4.43;;;10.30;80.80;;;;;;5032961;28;20057;-44
2023/03/14 01:52:13;;;;;;;18.27;4.40;;;10.30;80.90;;;;;;5033625;28;20041;-45
2023/03/14 01:55:00;;;;;;;20.13;5.38;;;10.30;80.90;;;;;;5033041;28;20025;-46
2023/03/14 01:57:37;;;;;;;20.60;6.78;;;10.30;81.00;;;;;;5019971;28;20040;-45
2023/03/14 02:00:20;;;;;;;17.30;5.85;;;10.40;80.90;;;;;;5033597;28;20024;-45
2023/03/14 02:02:51;;;;;;;16.88;5.05;;;10.40;80.90;;;;;;5049159;28;20045;-47
2023/03/14 02:05:25;;;;;;;20.80;5.70;;;10.30;81.30;;;;;;5032778;28;20085;-45
2023/03/14 02:07:57;;;;;;;16.50;5.30;;;10.40;81.40;;;;;;5033720;28;20037;-45
2023/03/14 02:10:27;;;;;;;24.63;6.38;;;10.40;81.30;;;;;;5032461;28;20065;-45
2023/03/14 02:13:04;;;;;;;;;;;10.40;81.30;;;;;;5016204;28;20053;-47
2023/03/14 02:15:34;;;;;;;15.80;4.55;;;10.40;81.40;;;;;;5033616;28;19955;-45
2023/03/14 02:18:03;;;;;;;21.67;4.57;;;10.40;81.60;;;;;;5033185;28;20101;-45
2023/03/14 02:20:44;;;;;;;;;;;10.50;82.00;;;;;;5032591;28;20037;-45
2023/03/14 02:23:16;;;;;;;11.20;3.22;;;10.50;82.20;;;;;;5032592;28;19916;-45
2023/03/14 02:25:50;;;;;;;19.20;4.20;;;10.50;82.30;;;;;;5033030;28;20028;-45
2023/03/14 02:28:17;;;;;;;17.55;4.68;;;10.50;82.70;;;;;;5031911;28;20041;-45
2023/03/14 02:30:44;;;;;;;10.20;3.60;;;10.50;83.20;;;;;;5031643;28;20412;-44
2023/03/14 02:33:19;;;;;;;9.80;3.47;;;10.60;83.50;;;;;;5032483;28;20037;-45
2023/03/14 02:36:09;;;;;;;10.55;3.30;;;10.50;83.80;;;;;;5032286;28;20036;-47
2023/03/14 02:38:58;;;;;;;11.63;4.38;;;10.50;84.30;;;;;;5032076;28;20029;-44
2023/03/14 02:41:26;;;;;;;9.25;3.30;;;10.50;84.50;;;;;;5031674;28;20053;-45
2023/03/14 02:43:53;;;;;;;13.75;3.40;;;10.50;84.80;;;;;;5031837;28;20033;-45
2023/03/14 02:46:22;;;;;;;9.85;3.22;;;10.50;85.20;;;;;;5032426;28;20101;-45
2023/03/14 02:49:14;;;;;;;10.33;3.10;;;10.50;85.40;;;;;;5031962;28;20040;-45
2023/03/14 02:51:44;;;;;;;9.02;3.65;;;10.60;85.70;;;;;;5033268;28;20275;-48
2023/03/14 02:54:12;;;;;;;13.85;4.20;;;10.60;85.40;;;;;;5031860;28;20037;-45
2023/03/14 02:56:39;;;;;;;10.98;3.65;;;10.60;85.20;;;;;;5032162;28;20029;-46
2023/03/14 02:59:07;;;;;;;9.70;3.58;;;10.60;85.00;;;;;;5032695;28;20108;-46
2023/03/14 03:01:33;;;;;;;10.73;3.85;;;10.60;85.50;;;;;;5031235;28;20030;-45
2023/03/14 03:04:00;;;;;;;9.68;3.67;;;10.60;85.80;;;;;;5032595;28;20035;-47
2023/03/14 03:06:28;;;;;;;13.88;4.95;;;10.50;85.80;;;;;;5052201;28;20092;-45
2023/03/14 03:08:55;;;;;;;11.65;5.88;;;10.50;85.80;;;;;;5036087;28;20026;-45
2023/03/14 03:11:22;;;;;;;10.43;4.28;;;10.50;85.70;;;;;;5038674;28;20039;-45
2023/03/14 03:13:47;;;;;;;10.95;4.03;;;10.40;85.70;;;;;;5056262;28;20068;-45
2023/03/14 03:16:14;;;;;;;13.02;4.22;;;10.50;85.90;;;;;;5056656;28;20446;-45
2023/03/14 03:18:42;;;;;;;17.08;6.30;;;10.40;86.00;;;;;;5047433;28;20040;-46
2023/03/14 03:21:12;;;;;;;11.50;4.05;;;10.40;86.00;;;;;;5036933;28;20120;-45
2023/03/14 03:23:40;;;;;;;12.00;5.03;;;10.40;85.90;;;;;;5036821;28;20025;-44
2023/03/14 03:26:08;;;;;;;10.88;4.22;;;10.40;86.00;;;;;;5048700;28;20045;-45
2023/03/14 03:28:36;;;;;;;11.70;4.47;;;10.40;86.10;;;;;;5055565;28;20029;-47
2023/03/14 03:31:11;;;;;;;14.07;4.25;;;10.30;86.10;;;;;;5050143;28;20079;-48
2023/03/14 03:33:39;;;;;;;10.50;3.47;;;10.20;86.10;;;;;;5036559;28;20034;-52
2023/03/14 03:36:05;;;;;;;8.65;3.22;;;10.20;86.20;;;;;;5036499;28;20031;-46
2023/03/14 03:38:33;;;;;;;11.63;3.70;;;10.20;86.10;;;;;;5036468;28;20026;-48
2023/03/14 03:41:09;;;;;;;13.57;5.68;;;10.20;86.10;;;;;;5056455;28;20083;-44
2023/03/14 03:43:39;;;;;;;10.65;3.85;;;10.20;86.00;;;;;;5054188;28;20036;-44
2023/03/14 03:46:06;;;;;;;12.13;4.07;;;10.20;86.00;;;;;;5036530;28;20045;-45
2023/03/14 03:48:35;;;;;;;17.60;4.53;;;10.20;85.80;;;;;;5035063;28;20204;-45
2023/03/14 03:51:03;;;;;;;14.50;4.40;;;10.20;85.60;;;;;;5036313;28;20017;-46
2023/03/14 03:53:29;;;;;;;12.38;3.78;;;10.20;85.60;;;;;;5040574;28;20037;-45
2023/03/14 03:55:59;;;;;;;9.50;3.80;;;10.20;85.60;;;;;;5035800;28;20041;-45
2023/03/14 03:58:27;;;;;;;;;;;10.20;85.70;;;;;;5036400;28;20082;-46
2023/03/14 04:00:54;;;;;;;15.65;4.80;;;10.10;85.90;;;;;;5054573;28;19927;-45
2023/03/14 04:03:20;;;;;;;16.63;3.95;;;10.10;85.90;;;;;;5056352;28;20172;-44
2023/03/14 04:06:05;;;;;;;9.98;3.55;;;10.10;86.10;;;;;;5056029;28;20898;-45
2023/03/14 04:08:33;;;;;;;8.95;3.55;;;10.00;85.90;;;;;;5035364;28;20033;-45
2023/03/14 04:11:01;;;;;;;13.20;3.95;;;10.00;85.90;;;;;;5035311;28;20086;-46
2023/03/14 04:13:29;;;;;;;13.20;3.92;;;9.90;86.00;;;;;;5051234;28;20396;-45
2023/03/14 04:16:00;;;;;;;11.27;3.53;;;9.90;85.70;;;;;;5037881;28;20032;-45
2023/03/14 04:18:31;;;;;;;11.02;3.88;;;10.00;85.20;;;;;;5055395;28;20049;-45
2023/03/14 04:20:57;;;;;;;9.90;3.00;;;10.00;84.90;;;;;;5054829;28;20327;-45
2023/03/14 04:23:27;;;;;;;13.27;3.60;;;10.00;84.80;;;;;;5055653;28;20028;-46
2023/03/14 04:25:53;;;;;;;11.02;3.42;;;10.00;84.80;;;;;;5051859;28;20032;-46
2023/03/14 04:28:21;;;;;;;13.65;2.95;;;10.00;84.70;;;;;;5051427;28;20053;-46
2023/03/14 04:30:52;;;;;;;9.32;3.33;;;9.90;84.70;;;;;;5034662;28;20125;-45
2023/03/14 04:33:18;;;;;;;14.70;3.38;;;9.90;84.80;;;;;;5035323;28;20021;-45
2023/03/14 04:35:50;;;;;;;13.48;3.13;;;10.00;84.70;;;;;;5035333;28;20097;-48
2023/03/14 04:38:18;;;;;;;9.68;2.95;;;10.00;84.70;;;;;;5034247;28;20372;-45
2023/03/14 04:40:47;;;;;;;13.02;4.40;;;10.00;84.70;;;;;;5034374;28;20105;-43
2023/03/14 04:43:14;;;;;;;11.10;3.15;;;9.90;84.80;;;;;;5033750;28;20025;-45
2023/03/14 04:45:44;;;;;;;9.88;3.35;;;9.90;85.30;;;;;;5050912;28;20036;-45
2023/03/14 04:48:12;;;;;;;15.98;5.18;;;9.90;85.80;;;;;;5054127;28;20338;-45
2023/03/14 04:50:43;;;;;;;17.33;3.87;;;9.90;86.20;;;;;;5040474;28;20056;-46
2023/03/14 04:53:10;;;;;;;14.18;3.92;;;9.80;86.50;;;;;;5033730;28;20021;-45
2023/03/14 04:55:36;;;;;;;21.15;4.35;;;9.80;86.90;;;;;;5050099;28;20072;-45
2023/03/14 04:58:04;;;;;;;13.13;4.07;;;9.80;87.00;;;;;;5034437;28;20443;-44
2023/03/14 05:00:31;;;;;;;14.98;5.10;;;9.80;87.20;;;;;;5034812;28;20098;-46
2023/03/14 05:02:57;;;;;;;15.98;5.40;;;9.70;87.80;;;;;;5034813;28;20026;-44
2023/03/14 05:05:25;;;;;;;10.50;4.85;;;9.60;88.40;;;;;;5033965;28;20057;-45
2023/03/14 05:07:53;;;;;;;17.48;6.35;;;9.50;88.80;;;;;;5033504;28;20033;-44
2023/03/14 05:10:21;;;;;;;16.98;6.30;;;9.50;89.10;;;;;;5034789;28;20021;-44
2023/03/14 05:12:48;;;;;;;16.02;5.20;;;9.40;89.20;;;;;;5034088;28;20138;-43
2023/03/14 05:15:14;;;;;;;13.38;4.47;;;9.50;89.30;;;;;;5034614;28;20052;-44
2023/03/14 05:17:42;;;;;;;11.77;4.18;;;9.40;89.20;;;;;;5034579;28;20427;-44
2023/03/14 05:20:13;;;;;;;12.57;6.10;;;9.50;89.20;;;;;;5034839;28;20044;-44
2023/03/14 05:22:39;;;;;;;11.45;4.15;;;9.40;89.30;;;;;;5034617;28;20053;-44
2023/03/14 05:25:09;;;;;;;17.83;5.60;;;9.40;89.50;;;;;;5034403;28;20037;-44
2023/03/14 05:27:36;;;;;;;;;;;9.40;89.80;;;;;;5034547;28;20351;-43
2023/03/14 05:30:23;;;;;;;12.38;4.20;;;9.40;89.90;;;;;;5034139;28;19909;-43
2023/03/14 05:32:50;;;;;;;12.50;3.95;;;9.40;90.10;;;;;;5033470;28;20427;-44
2023/03/14 05:35:25;;;;;;;13.45;4.93;;;9.30;90.10;;;;;;5034277;28;20033;-43
2023/03/14 05:37:51;;;;;;;10.02;4.30;;;9.30;90.20;;;;;;5041103;28;20028;-43
2023/03/14 05:40:17;;;;;;;8.15;3.97;;;9.30;90.30;;;;;;5054250;28;20024;-43
2023/03/14 05:42:47;;;;;;;12.63;4.43;;;9.30;90.30;;;;;;5049595;28;20095;-43
2023/03/14 05:45:16;;;;;;;12.68;5.32;;;9.20;90.40;;;;;;5049890;28;20415;-44
2023/03/14 05:47:43;;;;;;;15.02;5.15;;;9.30;90.40;;;;;;5034146;28;20025;-42
2023/03/14 05:50:10;;;;;;;11.25;4.90;;;9.30;90.40;;;;;;5034136;28;20462;-43
2023/03/14 05:52:36;;;;;;;13.98;4.95;;;9.30;90.50;;;;;;5033983;28;20041;-42
2023/03/14 05:55:04;;;;;;;11.57;4.38;;;9.20;90.70;;;;;;5032900;28;20347;-43
2023/03/14 05:57:33;;;;;;;11.02;4.32;;;9.20;90.80;;;;;;5033078;28;20041;-42
2023/03/14 06:00:02;;;;;;;11.70;6.05;;;9.20;90.90;;;;;;5047204;28;20039;-42
2023/03/14 06:02:29;;;;;;;9.50;4.95;;;9.20;90.90;;;;;;5053943;28;20394;-42
2023/03/14 06:04:56;;;;;;;15.10;4.82;;;9.20;90.90;;;;;;5053392;28;20043;-43
2023/03/14 06:07:24;;;;;;;10.98;4.78;;;9.20;90.80;;;;;;5037955;28;20048;-42
2023/03/14 06:09:52;;;;;;;10.57;4.75;;;9.30;90.80;;;;;;5033355;28;20025;-42
2023/03/14 06:12:24;;;;;;;12.68;4.25;;;9.30;90.70;;;;;;5032889;28;20045;-42
2023/03/14 06:14:51;;;;;;;8.02;3.92;;;9.30;90.60;;;;;;5032738;28;20437;-42
2023/03/14 06:17:20;;;;;;;8.35;3.90;;;9.30;90.60;;;;;;5033221;28;20029;-43
2023/03/14 06:19:47;;;;;;;14.77;5.70;;;9.30;90.80;;;;;;5032454;28;20038;-45
2023/03/14 06:22:13;;;;;;;16.75;4.70;;;9.30;91.00;;;;;;5033426;28;20033;-46
2023/03/14 06:24:42;;;;;;;13.70;5.55;;;9.30;91.10;;;;;;5032645;28;20036;-47
2023/03/14 06:27:10;;;;;;;9.93;5.28;;;9.30;91.30;;;;;;5033416;28;20040;-47
2023/03/14 06:29:43;;;;;;;19.38;5.35;;;9.20;91.50;;;;;;5033603;28;20026;-48
2023/03/14 06:32:10;;;;;;;9.82;4.43;;;9.20;91.60;;;;;;5050049;28;20430;-51
2023/03/14 06:34:38;;;;;;;10.15;4.63;;;9.20;91.70;;;;;;5053332;28;20025;-55
2023/03/14 06:37:06;;;;;;;16.15;4.85;;;9.20;91.80;;;;;;5053019;28;20450;-58
2023/03/14 06:39:35;;;;;;;11.30;5.18;;;9.20;91.90;;;;;;5037041;28;20041;-58
2023/03/14 06:42:04;;;;;;;10.48;4.93;;;9.20;92.10;;;;;;5039412;28;20032;-57
2023/03/14 06:44:31;;;;;;;10.02;4.18;;;9.10;92.20;;;;;;5053253;28;20025;-53
2023/03/14 06:46:59;;;;;;;12.50;5.40;;;9.10;92.40;;;;;;5052194;28;20410;-50
2023/03/14 06:49:26;;;;;;;9.60;4.28;;;9.10;92.40;;;;;;5053048;28;20025;-53
2023/03/14 06:51:53;;;;;;;9.40;4.00;;;9.10;92.50;;;;;;5032967;28;20132;-54
2023/03/14 06:54:20;;;;;;;9.60;4.82;;;9.10;92.50;;;;;;5041364;28;20029;-55
2023/03/14 06:56:47;;;;;;;15.48;6.25;;;9.10;92.60;;;;;;5052828;28;20370;-56
2023/03/14 06:59:13;;;;;;;8.77;4.57;;;9.10;92.70;;;;;;5052643;28;20044;-57
2023/03/14 07:01:40;;;;;;;16.73;5.40;;;9.10;92.80;;;;;;5051341;28;20108;-56
2023/03/14 07:04:09;;;;;;;8.35;5.00;;;9.10;92.90;;;;;;5031984;28;20029;-58
2023/03/14 07:06:36;;;;;;;8.93;4.05;;;9.10;92.90;;;;;;5033164;28;20095;-58
2023/03/14 07:09:06;;;;;;;9.93;4.10;;;9.00;92.90;;;;;;5033348;28;20030;-51
2023/03/14 07:11:35;;;;;;;11.85;4.07;;;9.00;93.10;;;;;;5031697;28;20045;-51
2023/03/14 07:14:00;;;;;;;6.80;3.97;;;9.00;93.10;;;;;;5032362;28;20076;-54
2023/03/14 07:16:31;;;;;;;8.60;3.63;;;9.10;93.20;;;;;;5032390;28;20026;-58
2023/03/14 07:19:04;;;;;;;6.90;2.70;;;9.10;93.20;;;;;;5032732;28;20033;-54
2023/03/14 07:21:32;;;;;;;6.03;2.40;;;9.00;93.10;;;;;;5032999;28;20029;-56
2023/03/14 07:24:00;;;;;;;8.18;4.20;;;9.00;92.90;;;;;;5033079;28;20399;-53
2023/03/14 07:26:27;;;;;;;7.45;3.47;;;9.00;92.90;;;;;;5048224;28;20040;-56
2023/03/14 07:28:56;;;;;;;13.18;3.30;;;8.90;92.90;;;;;;5032798;28;20028;-58
2023/03/14 07:31:23;;;;;;;;;;;8.90;92.90;;;;;;5033142;28;20033;-58
2023/03/14 07:33:54;;;;;;;9.05;3.25;;;9.00;93.00;;;;;;5031959;28;19982;-59
2023/03/14 07:36:23;;;;;;;13.65;2.47;;;8.90;93.00;;;;;;5032498;28;20053;-57
2023/03/14 07:38:49;;;;;;;16.48;2.05;;;8.40;90.90;;;;;;5032686;28;20037;-54
2023/03/14 07:41:20;;;;;;;10.00;2.03;;;7.30;89.00;;;;;;5031755;28;20026;-51
2023/03/14 07:43:52;;;;;;;15.77;1.83;;;6.40;89.60;;;;;;5032871;28;20034;-54
2023/03/14 07:46:20;;;;;;;13.05;1.52;;;5.60;90.10;;;;;;5035015;28;20021;-56
2023/03/14 07:48:48;;;;;;;7.90;1.25;;;5.40;90.60;;;;;;5052393;28;20405;-56
2023/03/14 07:51:16;;;;;;;9.48;1.67;;;5.30;91.30;;;;;;5052367;28;20055;-58
2023/03/14 07:53:45;;;;;;;7.22;1.17;;;4.90;91.00;;;;;;5052276;28;20363;-56
2023/03/14 07:56:13;;;;;;;4.75;1.35;;;4.80;91.30;;;;;;5036494;28;20100;-54
2023/03/14 07:58:38;;;;;;;5.88;1.30;;;4.50;91.10;;;;;;5036434;28;20076;-53
2023/03/14 08:01:06;;;;;;;10.23;1.88;;;4.30;91.30;;;;;;5036064;28;20053;-55
2023/03/14 08:03:33;;;;;;;7.43;0.90;;;4.20;91.60;;;;;;5036101;28;20506;-50
2023/03/14 08:06:03;;;;;;;6.43;1.00;;;4.20;91.70;;;;;;5035232;28;20037;-55
2023/03/14 08:08:31;;;;;;;5.47;1.13;;;3.90;91.30;;;;;;5036268;28;20041;-55
2023/03/14 08:11:03;;;;;;;7.43;1.10;;;3.90;91.60;;;;;;5036039;28;20029;-56
2023/03/14 08:13:31;;;;;;;2.80;0.70;;;3.70;91.50;;;;;;5034673;28;20053;-57
2023/03/14 08:16:01;;;;;;;1.88;0.80;;;3.50;91.60;;;;;;5034933;28;20033;-55
2023/03/14 08:18:28;;;;;;;5.22;1.38;;;3.20;91.50;;;;;;5045498;28;20039;-57
2023/03/14 08:20:55;;;;;;;5.60;1.67;;;3.20;91.90;;;;;;5056039;28;20461;-56
2023/03/14 08:23:24;;;;;;;4.45;1.45;;;3.10;92.10;;;;;;5051682;28;20036;-57
2023/03/14 08:25:51;;;;;;;5.07;2.60;;;3.10;92.50;;;;;;5035680;28;20050;-57
2023/03/14 08:28:18;;;;;;;3.75;0.85;;;3.10;92.70;;;;;;5036961;28;20490;-57
2023/03/14 08:30:47;;;;;;;13.05;4.55;;;3.10;92.70;;;;;;5055452;28;20036;-57
2023/03/14 08:33:13;;;;;;;3.00;0.70;;;3.10;92.70;;;;;;5055271;28;20393;-57
2023/03/14 08:35:39;;;;;;;5.40;1.00;;;3.10;92.70;;;;;;5050487;28;20043;-57
2023/03/14 08:38:06;;;;;;;2.50;0.70;;;3.20;92.90;;;;;;5034665;28;20075;-57
2023/03/14 08:40:32;;;;;;;7.80;1.15;;;3.10;92.60;;;;;;5051320;28;20021;-57
2023/03/14 08:42:58;;;;;;;3.33;0.90;;;3.10;92.80;;;;;;5035396;28;20032;-58
2023/03/14 08:45:27;;;;;;;4.63;1.10;;;3.20;92.90;;;;;;5034471;28;20056;-58
2023/03/14 08:47:53;;;;;;;10.80;1.02;;;3.30;93.20;;;;;;5035443;28;20064;-57
2023/03/14 08:50:20;;;;;;;4.88;0.82;;;3.40;93.20;;;;;;5035188;28;20106;-55
2023/03/14 08:52:51;;;;;;;3.53;0.73;;;3.30;92.90;;;;;;5054505;28;20232;-55
2023/03/14 08:55:17;;;;;;;3.70;0.85;;;3.30;92.90;;;;;;5055100;28;20086;-56
2023/03/14 08:57:42;;;;;;;3.28;0.82;;;3.40;93.00;;;;;;5053997;28;20037;-56
2023/03/14 09:00:15;;;;;;;3.78;0.68;;;3.60;93.00;;;;;;5050426;28;20054;-57
2023/03/14 09:02:42;;;;;;;5.70;1.38;;;3.70;93.00;;;;;;5034924;28;20029;-54
2023/03/14 09:05:12;;;;;;;7.22;1.60;;;3.60;92.60;;;;;;5034741;28;20037;-56
2023/03/14 09:07:39;;;;;;;;;;;3.80;92.70;;;;;;5034520;28;20049;-53
2023/03/14 09:10:08;;;;;;;7.93;0.80;;;3.80;92.80;;;;;;5034669;28;19932;-58
2023/03/14 09:12:33;;;;;;;6.03;0.98;;;3.90;92.80;;;;;;5050030;28;20049;-55
2023/03/14 09:15:00;;;;;;;6.93;0.90;;;3.80;92.30;;;;;;5033965;28;20044;-52
2023/03/14 09:17:27;;;;;;;4.65;0.80;;;3.90;92.50;;;;;;5034687;28;20115;-50
2023/03/14 09:19:54;;;;;;;6.20;0.90;;;4.00;92.20;;;;;;5034708;28;20017;-52
2023/03/14 09:22:21;;;;;;;7.88;0.80;;;4.20;92.50;;;;;;5034548;28;20439;-49
2023/03/14 09:24:51;;;;;;;5.57;1.50;;;4.40;92.50;;;;;;5033686;28;20049;-50
2023/03/14 09:27:19;;;;;;;6.43;0.82;;;4.40;92.00;;;;;;5034627;28;20017;-50
2023/03/14 09:29:47;;;;;;;4.82;1.27;;;4.40;92.00;;;;;;5034779;28;20025;-50
2023/03/14 09:32:14;;;;;;;4.93;0.93;;;4.60;91.70;;;;;;5033390;28;20340;-47
2023/03/14 09:34:41;;;;;;;5.13;1.00;;;4.70;91.70;;;;;;5033409;28;20037;-46
2023/03/14 09:37:08;;;;;;;2.88;1.10;;;5.00;91.60;;;;;;5034358;28;20431;-46
2023/03/14 09:39:36;;;;;;;7.18;1.42;;;5.20;90.80;;;;;;5033950;28;20041;-45
2023/03/14 09:42:07;;;;;;;4.78;1.55;;;5.20;90.60;;;;;;5034344;28;20119;-45
2023/03/14 09:44:37;;;;;;;5.90;1.67;;;5.10;89.70;;;;;;5033155;28;20494;-49
2023/03/14 09:47:07;;;;;;;6.60;1.60;;;5.20;89.40;;;;;;5033391;28;20119;-44
2023/03/14 09:49:39;;;;;;;6.63;2.13;;;5.20;89.40;;;;;;5033131;28;20048;-44
2023/03/14 09:52:29;;;;;;;14.13;3.55;;;5.20;89.30;;;;;;5033000;28;20773;-46
2023/03/14 09:55:21;;;;;;;9.73;2.00;;;5.30;89.00;;;;;;5033253;28;20041;-44
2023/03/14 09:57:50;;;;;;;9.90;1.67;;;5.70;89.10;;;;;;5032828;28;20029;-46
2023/03/14 10:00:27;;;;;;;13.80;2.60;;;5.90;88.40;;;;;;5016536;28;20033;-44
2023/03/14 10:03:22;;;;;;;13.48;3.35;;;6.00;86.70;;;;;;5048949;28;20071;-43
2023/03/14 10:05:50;;;;;;;13.45;1.92;;;6.10;86.80;;;;;;5033063;28;20021;-43
2023/03/14 10:08:20;;;;;;;14.65;2.28;;;6.20;86.70;;;;;;5038072;28;20095;-44
2023/03/14 10:10:46;;;;;;;12.05;2.97;;;6.40;86.20;;;;;;5053705;28;20032;-45
2023/03/14 10:13:29;;;;;;;13.05;2.63;;;6.40;85.30;;;;;;5049317;28;20042;-44
2023/03/14 10:16:06;;;;;;;14.77;4.75;;;6.60;84.80;;;;;;5033197;28;20026;-44
2023/03/14 10:18:34;;;;;;;16.67;3.60;;;6.60;84.50;;;;;;5048260;28;20128;-43
2023/03/14 10:21:07;;;;;;;13.77;2.60;;;6.50;83.50;;;;;;5049263;28;20017;-43
2023/03/14 10:23:34;;;;;;;10.48;2.35;;;6.30;82.90;;;;;;5032232;28;20025;-43
2023/03/14 10:26:34;;;;;;;11.20;2.70;;;5.90;83.20;;;;;;5033496;28;20053;-44
2023/03/14 10:29:16;;;;;;;18.27;3.42;;;5.70;85.00;;;;;;5029138;28;20047;-43
2023/03/14 10:31:50;;;;;;;23.50;3.15;;;5.50;86.20;;;;;;5033673;28;20481;-44
2023/03/14 10:34:33;;;;;;;15.77;3.28;;;5.20;86.00;;;;;;5032970;28;20245;-45
2023/03/14 10:37:07;;;;;;;14.85;2.05;;;5.10;86.40;;;;;;5032439;28;20091;-45
2023/03/14 10:39:48;;;;;;;10.43;2.13;;;5.10;86.90;;;;;;5015980;28;20037;-43
2023/03/14 10:42:20;;;;;;;13.48;2.90;;;5.30;87.20;;;;;;5033214;28;20044;-44
2023/03/14 10:44:53;;;;;;;21.33;4.47;;;5.40;87.40;;;;;;5033549;28;20095;-43
2023/03/14 10:47:24;;;;;;;13.10;3.75;;;5.70;87.20;;;;;;5032004;28;20122;-43
2023/03/14 10:50:28;;;;;;;16.55;2.60;;;5.70;82.50;;;;;;5036997;28;20032;-44
2023/03/14 10:52:56;;;;;;;18.17;3.45;;;5.90;81.60;;;;;;5049765;28;20051;-43
2023/03/14 10:55:27;;;;;;;16.80;3.67;;;5.90;80.70;;;;;;5035475;28;20032;-44
2023/03/14 10:57:53;;;;;;;16.63;3.08;;;5.90;77.00;;;;;;5051714;28;20037;-44
2023/03/14 11:00:32;;;;;;;13.05;4.47;;;6.00;76.10;;;;;;5039664;28;20114;-44
2023/03/14 11:03:04;;;;;;;16.92;3.90;;;6.00;74.90;;;;;;5032691;28;20040;-44
2023/03/14 11:06:13;;;;;;;15.30;3.70;;;6.10;77.00;;;;;;5033053;28;20029;-44
2023/03/14 11:09:10;;;;;;;17.08;2.88;;;6.10;75.90;;;;;;5033090;28;20022;-43
2023/03/14 11:11:41;;;;;;;21.52;4.38;;;6.00;75.10;;;;;;5019539;28;20041;-45
2023/03/14 11:14:17;;;;;;;18.38;3.03;;;5.90;73.80;;;;;;5031473;28;20057;-44
2023/03/14 11:16:51;;;;;;;15.38;2.17;;;6.00;75.80;;;;;;5051503;28;20036;-43
2023/03/14 11:20:04;;;;;;;9.48;2.63;;;6.00;73.40;;;;;;5052814;28;20025;-43
2023/03/14 11:23:10;;;;;;;14.85;2.63;;;5.90;70.10;;;;;;5019734;28;20049;-46
2023/03/14 11:26:13;;;;;;;13.00;3.45;;;6.00;72.60;;;;;;5033725;28;20036;-44
2023/03/14 11:28:48;;;;;;;14.45;2.53;;;5.90;69.60;;;;;;5035769;28;20443;-42
2023/03/14 11:31:35;;;;;;;8.88;2.15;;;5.90;69.00;;;;;;5036836;28;20035;-45
2023/03/14 11:34:34;;;;;;;13.05;2.42;;;5.80;68.20;;;;;;5035740;28;20029;-44
2023/03/14 11:37:12;;;;;;;11.13;2.38;;;5.90;67.50;;;;;;5019020;28;20026;-44
2023/03/14 11:39:44;;;;;;;9.00;2.25;;;6.00;66.30;;;;;;5036390;28;20021;-45
2023/03/14 11:42:19;;;;;;;7.00;2.58;;;5.90;66.30;;;;;;5035317;28;20045;-44
2023/03/14 11:44:49;;;;;;;12.90;2.22;;;5.90;66.90;;;;;;5036572;28;20033;-44
2023/03/14 11:47:34;;;;;;;15.65;2.92;;;5.90;66.70;;;;;;5035497;28;20072;-47
2023/03/14 11:50:28;;;;;;;8.43;2.28;;;5.90;66.70;;;;;;5035579;28;20116;-44
2023/03/14 11:53:08;;;;;;;8.80;2.22;;;6.20;65.00;;;;;;5035219;28;20048;-45
2023/03/14 11:55:40;;;;;;;12.18;1.77;;;6.30;64.00;;;;;;5019074;28;20044;-44
2023/03/14 11:58:16;;;;;;;15.93;2.35;;;6.20;64.50;;;;;;5035130;28;20132;-45
2023/03/14 12:00:44;;;;;;;10.70;2.50;;;6.30;66.10;;;;;;5035368;28;20030;-48
2023/03/14 12:03:41;;;;;;;16.20;2.08;;;6.50;68.10;;;;;;5034898;28;20056;-46
2023/03/14 12:06:35;;;;;;;8.00;2.40;;;6.60;64.70;;;;;;5036105;28;20033;-44
2023/03/14 12:09:03;;;;;;;6.80;1.75;;;6.70;66.70;;;;;;5034779;28;20050;-45
2023/03/14 12:11:56;;;;;;;7.95;3.22;;;6.70;63.40;;;;;;5036001;28;20364;-47
2023/03/14 12:14:54;;;;;;;6.78;1.70;;;6.50;64.10;;;;;;5035860;28;20443;-45
2023/03/14 12:17:39;;;;;;;12.20;2.33;;;6.60;64.80;;;;;;5034898;28;20470;-47
2023/03/14 12:20:21;;;;;;;7.55;2.22;;;6.90;64.80;;;;;;5035851;28;20466;-43
2023/03/14 12:23:01;;;;;;;12.10;1.85;;;6.90;64.50;;;;;;5034668;28;20026;-45
2023/03/14 12:25:34;;;;;;;10.85;2.00;;;6.70;64.30;;;;;;5034721;28;20041;-45
2023/03/14 12:28:04;;;;;;;8.48;1.65;;;6.50;63.50;;;;;;5034473;28;20037;-46
2023/03/14 12:30:48;;;;;;;11.13;1.90;;;6.40;63.20;;;;;;5035630;28;20029;-46
2023/03/14 12:33:31;;;;;;;10.98;1.33;;;6.40;61.80;;;;;;5035610;28;20439;-46
2023/03/14 12:36:43;;;;;;;7.22;2.00;;;6.30;58.10;;;;;;5035577;28;20044;-48
2023/03/14 12:39:25;;;;;;;10.05;2.40;;;6.40;60.70;;;;;;5049337;28;20362;-48
2023/03/14 12:42:29;;;;;;;10.35;2.53;;;6.80;63.90;;;;;;5049687;28;20040;-45
2023/03/14 12:45:33;;;;;;;9.60;2.08;;;7.00;65.50;;;;;;5034795;28;20021;-45
2023/03/14 12:48:24;;;;;;;9.63;2.10;;;7.00;65.30;;;;;;5030839;28;20343;-46
2023/03/14 12:51:12;;;;;;;12.77;2.13;;;7.10;63.50;;;;;;5034193;28;20474;-45
2023/03/14 12:54:08;;;;;;;11.93;2.08;;;7.10;63.20;;;;;;5017704;28;20049;-50
2023/03/14 12:56:55;;;;;;;12.30;2.45;;;7.00;62.90;;;;;;5032289;28;20126;-47
2023/03/14 12:59:37;;;;;;;10.32;2.40;;;7.20;66.00;;;;;;5035033;28;20100;-49
2023/03/14 13:02:08;;;;;;;7.53;2.08;;;6.90;61.60;;;;;;5034876;28;20029;-46
2023/03/14 13:05:02;;;;;;;10.50;2.67;;;6.90;63.20;;;;;;5035030;28;20029;-48
2023/03/14 13:07:55;;;;;;;8.13;2.58;;;6.90;64.00;;;;;;5034970;28;20347;-50
2023/03/14 13:10:24;;;;;;;7.88;2.50;;;6.90;62.20;;;;;;5034925;28;20072;-47
2023/03/14 13:12:55;;;;;;;9.10;2.20;;;6.90;63.40;;;;;;5033639;28;20050;-49
2023/03/14 13:15:42;;;;;;;6.95;2.30;;;6.90;63.50;;;;;;5050841;28;20691;-48
2023/03/14 13:18:16;;;;;;;6.45;2.05;;;6.80;62.40;;;;;;5053734;28;20033;-47